This is the latest recevied weather packets stored in our database for station/object OM8AKX-12. If no packets are shown the sender has not sent any weather packets the latest 10 day(s).
| Time | Temp. | Humidity | Pressure | Rain* | Wind** | Luminosity | Snow |
|---|---|---|---|---|---|---|---|
| 1777885800 | 23.33° C | 26% | 1014.1 hPa | - | - | - | - |
| 1777884900 | 22.78° C | 27% | 1014.3 hPa | - | - | - | - |
| 1777884000 | 22.22° C | 28% | 1014.4 hPa | - | - | - | - |
| 1777883100 | 22.22° C | 30% | 1014.6 hPa | - | - | - | - |
| 1777882201 | 21.67° C | 33% | 1014.5 hPa | - | - | - | - |
| 1777881300 | 20.56° C | 35% | 1014.6 hPa | - | - | - | - |
| 1777880400 | 20° C | 38% | 1014.5 hPa | - | - | - | - |
| 1777879506 | 18.33° C | 39% | 1014.7 hPa | - | - | - | - |
| 1777878600 | 17.78° C | 41% | 1014.5 hPa | - | - | - | - |
| 1777877700 | 17.22° C | 43% | 1014.6 hPa | - | - | - | - |
| 1777876806 | 16.11° C | 45% | 1014.5 hPa | - | - | - | - |
| 1777875901 | 15.56° C | 46% | 1014.6 hPa | - | - | - | - |
| 1777874999 | 15° C | 48% | 1014.6 hPa | - | - | - | - |
| 1777874100 | 13.33° C | 52% | 1014.7 hPa | - | - | - | - |
| 1777873200 | 10.56° C | 72% | 1014.7 hPa | - | - | - | - |
| 1777871400 | 8.33° C | 80% | 1014.7 hPa | - | - | - | - |
| 1777870509 | 7.22° C | 83% | 1014.6 hPa | - | - | - | - |
| 1777869599 | 6.67° C | 86% | 1014.5 hPa | - | - | - | - |
| 1777868706 | 6.11° C | 93% | 1014.5 hPa | - | - | - | - |
| 1777867799 | 5° C | 100% | 1014.4 hPa | - | - | - | - |
| 1777866899 | 3.89° C | 100% | 1014.4 hPa | - | - | - | - |
| 1777865999 | 3.33° C | 99% | 1014.3 hPa | - | - | - | - |
| 1777865099 | 3.33° C | 97% | 1014.3 hPa | - | - | - | - |
| 1777864199 | 3.33° C | 94% | 1014.4 hPa | - | - | - | - |
| 1777863302 | 3.89° C | 91% | 1014.3 hPa | - | - | - | - |
* Rain since midnight (hover to see other rain measurements)
** Current wind speed in m/s (hover to see current wind gust speed)